sensor_id;sensor_type;location;lat;lon;timestamp;temperature;humidity
11474;DHT22;5793;52.238;13.438;2023-09-08T00:01:52;15.60;99.90
11474;DHT22;5793;52.238;13.438;2023-09-08T00:04:22;15.50;99.90
11474;DHT22;5793;52.238;13.438;2023-09-08T00:06:50;15.60;99.90
11474;DHT22;5793;52.238;13.438;2023-09-08T00:09:18;15.60;99.90
11474;DHT22;5793;52.238;13.438;2023-09-08T00:11:46;15.60;99.90
11474;DHT22;5793;52.238;13.438;2023-09-08T00:14:14;15.60;99.90
11474;DHT22;5793;52.238;13.438;2023-09-08T00:16:42;15.50;99.90
11474;DHT22;5793;52.238;13.438;2023-09-08T00:19:10;15.60;99.90
11474;DHT22;5793;52.238;13.438;2023-09-08T00:21:39;15.50;99.90
11474;DHT22;5793;52.238;13.438;2023-09-08T00:24:09;15.50;99.90
11474;DHT22;5793;52.238;13.438;2023-09-08T00:26:39;15.50;99.90
11474;DHT22;5793;52.238;13.438;2023-09-08T00:29:06;15.40;99.90
11474;DHT22;5793;52.238;13.438;2023-09-08T00:31:34;15.30;99.90
11474;DHT22;5793;52.238;13.438;2023-09-08T00:34:02;15.20;99.90
11474;DHT22;5793;52.238;13.438;2023-09-08T00:36:30;15.30;99.90
11474;DHT22;5793;52.238;13.438;2023-09-08T00:38:59;15.30;99.90
11474;DHT22;5793;52.238;13.438;2023-09-08T00:41:27;15.30;99.90
11474;DHT22;5793;52.238;13.438;2023-09-08T00:43:55;15.30;99.90
11474;DHT22;5793;52.238;13.438;2023-09-08T00:46:22;15.30;99.90
11474;DHT22;5793;52.238;13.438;2023-09-08T00:48:51;15.20;99.90
11474;DHT22;5793;52.238;13.438;2023-09-08T00:51:20;15.20;99.90
11474;DHT22;5793;52.238;13.438;2023-09-08T00:53:49;15.30;99.90
11474;DHT22;5793;52.238;13.438;2023-09-08T00:56:18;15.30;99.90
11474;DHT22;5793;52.238;13.438;2023-09-08T00:58:46;15.30;99.90
11474;DHT22;5793;52.238;13.438;2023-09-08T01:01:14;15.30;99.90
11474;DHT22;5793;52.238;13.438;2023-09-08T01:03:44;15.10;99.90
11474;DHT22;5793;52.238;13.438;2023-09-08T01:06:12;15.00;99.90
11474;DHT22;5793;52.238;13.438;2023-09-08T01:08:41;14.90;99.90
11474;DHT22;5793;52.238;13.438;2023-09-08T01:11:10;14.80;99.90
11474;DHT22;5793;52.238;13.438;2023-09-08T01:13:39;14.80;99.90
11474;DHT22;5793;52.238;13.438;2023-09-08T01:16:07;14.70;99.90
11474;DHT22;5793;52.238;13.438;2023-09-08T01:18:35;14.70;99.90
11474;DHT22;5793;52.238;13.438;2023-09-08T01:21:14;14.60;99.90
11474;DHT22;5793;52.238;13.438;2023-09-08T01:23:59;14.60;99.90
11474;DHT22;5793;52.238;13.438;2023-09-08T01:26:39;14.60;99.90
11474;DHT22;5793;52.238;13.438;2023-09-08T01:29:09;14.60;99.90
11474;DHT22;5793;52.238;13.438;2023-09-08T01:31:38;14.70;99.90
11474;DHT22;5793;52.238;13.438;2023-09-08T01:34:07;14.70;99.90
11474;DHT22;5793;52.238;13.438;2023-09-08T01:36:35;14.80;99.90
11474;DHT22;5793;52.238;13.438;2023-09-08T01:39:04;14.90;99.90
11474;DHT22;5793;52.238;13.438;2023-09-08T01:41:32;14.90;99.90
11474;DHT22;5793;52.238;13.438;2023-09-08T01:44:01;15.00;99.90
11474;DHT22;5793;52.238;13.438;2023-09-08T01:46:35;15.00;99.90
11474;DHT22;5793;52.238;13.438;2023-09-08T01:49:03;14.90;99.90
11474;DHT22;5793;52.238;13.438;2023-09-08T01:51:30;14.90;99.90
11474;DHT22;5793;52.238;13.438;2023-09-08T01:53:58;14.90;99.90
11474;DHT22;5793;52.238;13.438;2023-09-08T01:56:26;14.90;99.90
11474;DHT22;5793;52.238;13.438;2023-09-08T01:58:54;14.90;99.90
11474;DHT22;5793;52.238;13.438;2023-09-08T02:01:23;14.80;99.90
11474;DHT22;5793;52.238;13.438;2023-09-08T02:03:51;14.60;99.90
11474;DHT22;5793;52.238;13.438;2023-09-08T02:06:18;14.60;99.90
11474;DHT22;5793;52.238;13.438;2023-09-08T02:08:46;14.50;99.90
11474;DHT22;5793;52.238;13.438;2023-09-08T02:11:14;14.60;99.90
11474;DHT22;5793;52.238;13.438;2023-09-08T02:13:42;14.60;99.90
11474;DHT22;5793;52.238;13.438;2023-09-08T02:16:13;14.60;99.90
11474;DHT22;5793;52.238;13.438;2023-09-08T02:18:42;14.60;99.90
11474;DHT22;5793;52.238;13.438;2023-09-08T02:21:10;14.50;99.90
11474;DHT22;5793;52.238;13.438;2023-09-08T02:23:38;14.40;99.90
11474;DHT22;5793;52.238;13.438;2023-09-08T02:26:06;14.30;99.90
11474;DHT22;5793;52.238;13.438;2023-09-08T02:28:33;14.10;99.90
11474;DHT22;5793;52.238;13.438;2023-09-08T02:31:02;14.10;99.90
11474;DHT22;5793;52.238;13.438;2023-09-08T02:33:30;14.00;99.90
11474;DHT22;5793;52.238;13.438;2023-09-08T02:36:03;14.00;99.90
11474;DHT22;5793;52.238;13.438;2023-09-08T02:38:31;13.90;99.90
11474;DHT22;5793;52.238;13.438;2023-09-08T02:41:00;14.00;99.90
11474;DHT22;5793;52.238;13.438;2023-09-08T02:43:28;14.00;99.90
11474;DHT22;5793;52.238;13.438;2023-09-08T02:45:56;14.00;99.90
11474;DHT22;5793;52.238;13.438;2023-09-08T02:48:24;14.00;99.90
11474;DHT22;5793;52.238;13.438;2023-09-08T02:50:52;13.90;99.90
11474;DHT22;5793;52.238;13.438;2023-09-08T02:53:23;13.90;99.90
11474;DHT22;5793;52.238;13.438;2023-09-08T02:55:55;13.90;99.90
11474;DHT22;5793;52.238;13.438;2023-09-08T02:58:23;14.10;99.90
11474;DHT22;5793;52.238;13.438;2023-09-08T03:00:51;14.10;99.90
11474;DHT22;5793;52.238;13.438;2023-09-08T03:03:19;14.10;99.90
11474;DHT22;5793;52.238;13.438;2023-09-08T03:05:47;14.10;99.90
11474;DHT22;5793;52.238;13.438;2023-09-08T03:08:15;14.10;99.90
11474;DHT22;5793;52.238;13.438;2023-09-08T03:10:44;14.10;99.90
11474;DHT22;5793;52.238;13.438;2023-09-08T03:13:12;14.20;99.90
11474;DHT22;5793;52.238;13.438;2023-09-08T03:15:40;14.20;99.90
11474;DHT22;5793;52.238;13.438;2023-09-08T03:18:07;14.20;99.90
11474;DHT22;5793;52.238;13.438;2023-09-08T03:20:35;14.30;99.90
11474;DHT22;5793;52.238;13.438;2023-09-08T03:23:04;14.30;99.90
11474;DHT22;5793;52.238;13.438;2023-09-08T03:25:31;14.30;99.90
11474;DHT22;5793;52.238;13.438;2023-09-08T03:28:00;14.30;99.90
11474;DHT22;5793;52.238;13.438;2023-09-08T03:30:28;14.30;99.90
11474;DHT22;5793;52.238;13.438;2023-09-08T03:32:56;14.20;99.90
11474;DHT22;5793;52.238;13.438;2023-09-08T03:35:24;14.30;99.90
11474;DHT22;5793;52.238;13.438;2023-09-08T03:37:52;14.20;99.90
11474;DHT22;5793;52.238;13.438;2023-09-08T03:40:19;14.20;99.90
11474;DHT22;5793;52.238;13.438;2023-09-08T03:42:47;14.20;99.90
11474;DHT22;5793;52.238;13.438;2023-09-08T03:45:16;14.10;99.90
11474;DHT22;5793;52.238;13.438;2023-09-08T03:47:44;14.20;99.90
11474;DHT22;5793;52.238;13.438;2023-09-08T03:50:12;14.10;99.90
11474;DHT22;5793;52.238;13.438;2023-09-08T03:52:41;14.20;99.90
11474;DHT22;5793;52.238;13.438;2023-09-08T03:55:09;14.10;99.90
11474;DHT22;5793;52.238;13.438;2023-09-08T03:57:37;14.10;99.90
11474;DHT22;5793;52.238;13.438;2023-09-08T04:00:07;14.10;99.90
11474;DHT22;5793;52.238;13.438;2023-09-08T04:02:38;14.20;99.90
11474;DHT22;5793;52.238;13.438;2023-09-08T04:05:06;14.10;99.90
11474;DHT22;5793;52.238;13.438;2023-09-08T04:07:34;14.10;99.90
11474;DHT22;5793;52.238;13.438;2023-09-08T04:10:03;14.10;99.90
11474;DHT22;5793;52.238;13.438;2023-09-08T04:12:30;14.10;99.90
11474;DHT22;5793;52.238;13.438;2023-09-08T04:14:58;14.10;99.90
11474;DHT22;5793;52.238;13.438;2023-09-08T04:17:26;14.10;99.90
11474;DHT22;5793;52.238;13.438;2023-09-08T04:19:55;14.10;99.90
11474;DHT22;5793;52.238;13.438;2023-09-08T04:22:23;14.10;99.90
11474;DHT22;5793;52.238;13.438;2023-09-08T04:24:51;14.00;99.90
11474;DHT22;5793;52.238;13.438;2023-09-08T04:27:19;14.10;99.90
11474;DHT22;5793;52.238;13.438;2023-09-08T04:29:47;14.00;99.90
11474;DHT22;5793;52.238;13.438;2023-09-08T04:32:15;14.00;99.90
11474;DHT22;5793;52.238;13.438;2023-09-08T04:34:44;13.90;99.90
11474;DHT22;5793;52.238;13.438;2023-09-08T04:37:13;13.90;99.90
11474;DHT22;5793;52.238;13.438;2023-09-08T04:39:41;13.90;99.90
11474;DHT22;5793;52.238;13.438;2023-09-08T04:42:09;13.90;99.90
11474;DHT22;5793;52.238;13.438;2023-09-08T04:44:37;13.90;99.90
11474;DHT22;5793;52.238;13.438;2023-09-08T04:47:05;13.90;99.90
11474;DHT22;5793;52.238;13.438;2023-09-08T04:49:33;13.90;99.90
11474;DHT22;5793;52.238;13.438;2023-09-08T04:52:00;13.70;99.90
11474;DHT22;5793;52.238;13.438;2023-09-08T04:54:29;13.80;99.90
11474;DHT22;5793;52.238;13.438;2023-09-08T04:56:58;13.80;99.90
11474;DHT22;5793;52.238;13.438;2023-09-08T04:59:46;13.80;99.90
11474;DHT22;5793;52.238;13.438;2023-09-08T05:02:14;13.80;99.90
11474;DHT22;5793;52.238;13.438;2023-09-08T05:04:41;13.80;99.90
11474;DHT22;5793;52.238;13.438;2023-09-08T05:07:09;13.90;99.90
11474;DHT22;5793;52.238;13.438;2023-09-08T05:09:40;13.90;99.90
11474;DHT22;5793;52.238;13.438;2023-09-08T05:12:08;13.90;99.90
11474;DHT22;5793;52.238;13.438;2023-09-08T05:14:36;13.90;99.90
11474;DHT22;5793;52.238;13.438;2023-09-08T05:17:04;14.00;99.90
11474;DHT22;5793;52.238;13.438;2023-09-08T05:19:31;14.00;99.90
11474;DHT22;5793;52.238;13.438;2023-09-08T05:21:59;14.00;99.90
11474;DHT22;5793;52.238;13.438;2023-09-08T05:24:27;13.90;99.90
11474;DHT22;5793;52.238;13.438;2023-09-08T05:26:56;13.90;99.90
11474;DHT22;5793;52.238;13.438;2023-09-08T05:29:24;13.90;99.90
11474;DHT22;5793;52.238;13.438;2023-09-08T05:31:52;14.00;99.90
11474;DHT22;5793;52.238;13.438;2023-09-08T05:34:20;13.90;99.90
11474;DHT22;5793;52.238;13.438;2023-09-08T05:36:48;14.00;99.90
11474;DHT22;5793;52.238;13.438;2023-09-08T05:39:16;14.00;99.90
11474;DHT22;5793;52.238;13.438;2023-09-08T05:41:45;14.10;99.90
11474;DHT22;5793;52.238;13.438;2023-09-08T05:44:14;14.20;99.90
11474;DHT22;5793;52.238;13.438;2023-09-08T05:46:42;14.30;99.90
11474;DHT22;5793;52.238;13.438;2023-09-08T05:49:10;14.30;99.90
11474;DHT22;5793;52.238;13.438;2023-09-08T05:51:38;14.40;99.90
11474;DHT22;5793;52.238;13.438;2023-09-08T05:54:06;14.50;99.90
11474;DHT22;5793;52.238;13.438;2023-09-08T05:56:34;14.60;99.90
11474;DHT22;5793;52.238;13.438;2023-09-08T05:59:02;14.70;99.90
11474;DHT22;5793;52.238;13.438;2023-09-08T06:01:31;14.80;99.90
11474;DHT22;5793;52.238;13.438;2023-09-08T06:04:00;14.90;99.90
11474;DHT22;5793;52.238;13.438;2023-09-08T06:06:28;15.00;99.90
11474;DHT22;5793;52.238;13.438;2023-09-08T06:08:56;14.90;99.90
11474;DHT22;5793;52.238;13.438;2023-09-08T06:11:24;15.00;99.90
11474;DHT22;5793;52.238;13.438;2023-09-08T06:13:51;15.10;99.90
11474;DHT22;5793;52.238;13.438;2023-09-08T06:16:25;15.20;99.90
11474;DHT22;5793;52.238;13.438;2023-09-08T06:18:54;15.20;99.90
11474;DHT22;5793;52.238;13.438;2023-09-08T06:21:22;15.20;99.90
11474;DHT22;5793;52.238;13.438;2023-09-08T06:23:50;15.30;99.90
11474;DHT22;5793;52.238;13.438;2023-09-08T06:26:18;15.50;99.90
11474;DHT22;5793;52.238;13.438;2023-09-08T06:28:46;15.50;99.90
11474;DHT22;5793;52.238;13.438;2023-09-08T06:31:13;15.70;99.90
11474;DHT22;5793;52.238;13.438;2023-09-08T06:33:41;15.80;99.90
11474;DHT22;5793;52.238;13.438;2023-09-08T06:36:11;15.80;99.90
11474;DHT22;5793;52.238;13.438;2023-09-08T06:38:39;15.90;99.90
11474;DHT22;5793;52.238;13.438;2023-09-08T06:41:10;16.00;99.90
11474;DHT22;5793;52.238;13.438;2023-09-08T06:43:39;16.10;99.90
11474;DHT22;5793;52.238;13.438;2023-09-08T06:46:06;16.20;99.90
11474;DHT22;5793;52.238;13.438;2023-09-08T06:48:34;16.30;99.90
11474;DHT22;5793;52.238;13.438;2023-09-08T06:51:03;16.40;99.90
11474;DHT22;5793;52.238;13.438;2023-09-08T06:53:32;16.50;99.90
11474;DHT22;5793;52.238;13.438;2023-09-08T06:56:00;16.70;99.90
11474;DHT22;5793;52.238;13.438;2023-09-08T06:58:28;16.80;99.90
11474;DHT22;5793;52.238;13.438;2023-09-08T07:00:56;16.90;99.90
11474;DHT22;5793;52.238;13.438;2023-09-08T07:03:24;17.00;99.90
11474;DHT22;5793;52.238;13.438;2023-09-08T07:05:53;17.20;99.90
11474;DHT22;5793;52.238;13.438;2023-09-08T07:08:21;17.30;99.90
11474;DHT22;5793;52.238;13.438;2023-09-08T07:10:52;17.50;99.90
11474;DHT22;5793;52.238;13.438;2023-09-08T07:13:21;17.60;99.90
11474;DHT22;5793;52.238;13.438;2023-09-08T07:15:49;17.80;99.90
11474;DHT22;5793;52.238;13.438;2023-09-08T07:18:17;18.00;99.90
11474;DHT22;5793;52.238;13.438;2023-09-08T07:20:46;18.10;99.90
11474;DHT22;5793;52.238;13.438;2023-09-08T07:23:15;18.30;99.90
11474;DHT22;5793;52.238;13.438;2023-09-08T07:25:45;18.60;99.90
11474;DHT22;5793;52.238;13.438;2023-09-08T07:28:15;18.80;99.90
11474;DHT22;5793;52.238;13.438;2023-09-08T07:30:43;19.10;99.90
11474;DHT22;5793;52.238;13.438;2023-09-08T07:33:11;19.40;99.90
11474;DHT22;5793;52.238;13.438;2023-09-08T07:35:39;19.60;99.90
11474;DHT22;5793;52.238;13.438;2023-09-08T07:38:07;19.90;99.90
11474;DHT22;5793;52.238;13.438;2023-09-08T07:40:35;20.10;99.90
11474;DHT22;5793;52.238;13.438;2023-09-08T07:43:03;20.30;99.90
11474;DHT22;5793;52.238;13.438;2023-09-08T07:45:33;20.50;99.90
11474;DHT22;5793;52.238;13.438;2023-09-08T07:48:00;20.70;99.90
11474;DHT22;5793;52.238;13.438;2023-09-08T07:50:28;21.00;99.90
11474;DHT22;5793;52.238;13.438;2023-09-08T07:52:58;21.10;99.90
11474;DHT22;5793;52.238;13.438;2023-09-08T07:55:25;21.40;99.90
11474;DHT22;5793;52.238;13.438;2023-09-08T07:57:55;21.60;99.90
11474;DHT22;5793;52.238;13.438;2023-09-08T08:00:24;21.80;99.90
11474;DHT22;5793;52.238;13.438;2023-09-08T08:02:55;22.10;99.90
11474;DHT22;5793;52.238;13.438;2023-09-08T08:05:24;22.40;99.90
11474;DHT22;5793;52.238;13.438;2023-09-08T08:07:52;22.60;99.90
11474;DHT22;5793;52.238;13.438;2023-09-08T08:10:20;22.80;99.90
11474;DHT22;5793;52.238;13.438;2023-09-08T08:12:48;22.90;99.90
11474;DHT22;5793;52.238;13.438;2023-09-08T08:15:18;23.20;99.90
11474;DHT22;5793;52.238;13.438;2023-09-08T08:17:46;23.40;99.90
11474;DHT22;5793;52.238;13.438;2023-09-08T08:20:15;23.70;99.90
11474;DHT22;5793;52.238;13.438;2023-09-08T08:22:45;23.90;99.90
11474;DHT22;5793;52.238;13.438;2023-09-08T08:25:13;24.10;99.90
11474;DHT22;5793;52.238;13.438;2023-09-08T08:27:41;24.40;99.90
11474;DHT22;5793;52.238;13.438;2023-09-08T08:30:09;25.00;99.90
11474;DHT22;5793;52.238;13.438;2023-09-08T08:32:38;26.00;99.90
11474;DHT22;5793;52.238;13.438;2023-09-08T08:35:06;27.40;99.90
11474;DHT22;5793;52.238;13.438;2023-09-08T08:37:35;29.40;99.90
11474;DHT22;5793;52.238;13.438;2023-09-08T08:40:04;31.90;99.90
11474;DHT22;5793;52.238;13.438;2023-09-08T08:42:33;34.40;96.30
11474;DHT22;5793;52.238;13.438;2023-09-08T08:45:01;36.90;83.70
11474;DHT22;5793;52.238;13.438;2023-09-08T08:47:30;38.10;74.70
11474;DHT22;5793;52.238;13.438;2023-09-08T08:49:58;39.40;68.80
11474;DHT22;5793;52.238;13.438;2023-09-08T08:52:27;40.80;63.00
11474;DHT22;5793;52.238;13.438;2023-09-08T08:54:57;41.80;59.20
11474;DHT22;5793;52.238;13.438;2023-09-08T08:57:26;42.70;54.90
11474;DHT22;5793;52.238;13.438;2023-09-08T08:59:55;43.40;52.70
11474;DHT22;5793;52.238;13.438;2023-09-08T09:02:25;43.40;52.60
11474;DHT22;5793;52.238;13.438;2023-09-08T09:04:56;43.60;51.50
11474;DHT22;5793;52.238;13.438;2023-09-08T09:07:26;44.40;49.70
11474;DHT22;5793;52.238;13.438;2023-09-08T09:09:54;45.10;48.10
11474;DHT22;5793;52.238;13.438;2023-09-08T09:12:24;45.80;47.00
11474;DHT22;5793;52.238;13.438;2023-09-08T09:14:53;46.30;46.00
11474;DHT22;5793;52.238;13.438;2023-09-08T09:17:21;47.20;46.30
11474;DHT22;5793;52.238;13.438;2023-09-08T09:19:49;46.90;44.10
11474;DHT22;5793;52.238;13.438;2023-09-08T09:22:20;47.10;44.10
11474;DHT22;5793;52.238;13.438;2023-09-08T09:24:48;47.20;44.20
11474;DHT22;5793;52.238;13.438;2023-09-08T09:27:16;47.10;43.40
11474;DHT22;5793;52.238;13.438;2023-09-08T09:29:47;47.30;42.80
11474;DHT22;5793;52.238;13.438;2023-09-08T09:32:15;47.60;42.00
11474;DHT22;5793;52.238;13.438;2023-09-08T09:34:48;47.40;41.40
11474;DHT22;5793;52.238;13.438;2023-09-08T09:37:16;47.30;42.90
11474;DHT22;5793;52.238;13.438;2023-09-08T09:39:48;47.10;41.90
11474;DHT22;5793;52.238;13.438;2023-09-08T09:42:16;47.00;41.10
11474;DHT22;5793;52.238;13.438;2023-09-08T09:44:46;46.90;41.30
11474;DHT22;5793;52.238;13.438;2023-09-08T09:47:15;47.10;41.40
11474;DHT22;5793;52.238;13.438;2023-09-08T09:49:44;47.30;40.80
11474;DHT22;5793;52.238;13.438;2023-09-08T09:52:14;47.80;41.00
11474;DHT22;5793;52.238;13.438;2023-09-08T09:54:43;47.90;41.80
11474;DHT22;5793;52.238;13.438;2023-09-08T09:57:13;47.30;40.20
11474;DHT22;5793;52.238;13.438;2023-09-08T09:59:41;46.90;40.50
11474;DHT22;5793;52.238;13.438;2023-09-08T10:02:13;46.70;40.20
11474;DHT22;5793;52.238;13.438;2023-09-08T10:04:42;46.50;40.70
11474;DHT22;5793;52.238;13.438;2023-09-08T10:07:10;46.10;42.20
11474;DHT22;5793;52.238;13.438;2023-09-08T10:09:37;45.70;40.80
11474;DHT22;5793;52.238;13.438;2023-09-08T10:12:06;45.90;41.60
11474;DHT22;5793;52.238;13.438;2023-09-08T10:14:39;45.90;41.10
11474;DHT22;5793;52.238;13.438;2023-09-08T10:17:11;46.00;41.10
11474;DHT22;5793;52.238;13.438;2023-09-08T10:19:39;45.60;41.30
11474;DHT22;5793;52.238;13.438;2023-09-08T10:22:14;45.00;41.90
11474;DHT22;5793;52.238;13.438;2023-09-08T10:24:44;43.90;43.50
11474;DHT22;5793;52.238;13.438;2023-09-08T10:27:14;42.60;45.90
11474;DHT22;5793;52.238;13.438;2023-09-08T10:29:46;41.00;46.90
11474;DHT22;5793;52.238;13.438;2023-09-08T10:32:15;39.30;47.60
11474;DHT22;5793;52.238;13.438;2023-09-08T10:34:45;38.50;49.30
11474;DHT22;5793;52.238;13.438;2023-09-08T10:37:20;37.50;51.60
11474;DHT22;5793;52.238;13.438;2023-09-08T10:39:48;36.30;53.10
11474;DHT22;5793;52.238;13.438;2023-09-08T10:42:21;35.40;54.40
11474;DHT22;5793;52.238;13.438;2023-09-08T10:45:01;34.50;56.10
11474;DHT22;5793;52.238;13.438;2023-09-08T10:47:41;33.90;57.60
11474;DHT22;5793;52.238;13.438;2023-09-08T10:50:16;33.30;61.40
11474;DHT22;5793;52.238;13.438;2023-09-08T10:52:44;33.10;59.20
11474;DHT22;5793;52.238;13.438;2023-09-08T10:55:13;32.80;59.90
11474;DHT22;5793;52.238;13.438;2023-09-08T10:57:44;32.90;59.60
11474;DHT22;5793;52.238;13.438;2023-09-08T11:00:18;33.80;57.30
11474;DHT22;5793;52.238;13.438;2023-09-08T11:02:50;34.80;56.80
11474;DHT22;5793;52.238;13.438;2023-09-08T11:05:18;36.00;53.90
11474;DHT22;5793;52.238;13.438;2023-09-08T11:07:48;37.10;52.80
11474;DHT22;5793;52.238;13.438;2023-09-08T11:10:16;38.10;48.90
11474;DHT22;5793;52.238;13.438;2023-09-08T11:12:44;38.70;49.40
11474;DHT22;5793;52.238;13.438;2023-09-08T11:15:12;38.90;49.50
11474;DHT22;5793;52.238;13.438;2023-09-08T11:17:40;38.70;50.10
11474;DHT22;5793;52.238;13.438;2023-09-08T11:20:11;38.30;50.80
11474;DHT22;5793;52.238;13.438;2023-09-08T11:22:39;37.40;52.50
11474;DHT22;5793;52.238;13.438;2023-09-08T11:25:08;36.50;52.90
11474;DHT22;5793;52.238;13.438;2023-09-08T11:27:38;35.60;54.10
11474;DHT22;5793;52.238;13.438;2023-09-08T11:30:08;34.80;55.00
11474;DHT22;5793;52.238;13.438;2023-09-08T11:32:36;34.30;55.80
11474;DHT22;5793;52.238;13.438;2023-09-08T11:35:05;33.70;57.10
11474;DHT22;5793;52.238;13.438;2023-09-08T11:37:36;33.40;58.60
11474;DHT22;5793;52.238;13.438;2023-09-08T11:40:06;32.90;59.60
11474;DHT22;5793;52.238;13.438;2023-09-08T11:42:39;32.70;59.20
11474;DHT22;5793;52.238;13.438;2023-09-08T11:45:11;32.50;60.00
11474;DHT22;5793;52.238;13.438;2023-09-08T11:47:40;32.20;62.50
11474;DHT22;5793;52.238;13.438;2023-09-08T11:50:09;31.90;62.00
11474;DHT22;5793;52.238;13.438;2023-09-08T11:52:46;31.80;62.50
11474;DHT22;5793;52.238;13.438;2023-09-08T11:55:15;31.70;59.70
11474;DHT22;5793;52.238;13.438;2023-09-08T11:57:46;31.60;61.30
11474;DHT22;5793;52.238;13.438;2023-09-08T12:00:15;31.50;62.60
11474;DHT22;5793;52.238;13.438;2023-09-08T12:02:44;31.50;62.60
11474;DHT22;5793;52.238;13.438;2023-09-08T12:05:13;31.70;62.70
11474;DHT22;5793;52.238;13.438;2023-09-08T12:07:41;31.80;61.60
11474;DHT22;5793;52.238;13.438;2023-09-08T12:10:11;31.80;61.80
11474;DHT22;5793;52.238;13.438;2023-09-08T12:12:45;31.90;61.20
11474;DHT22;5793;52.238;13.438;2023-09-08T12:15:31;31.90;61.10
11474;DHT22;5793;52.238;13.438;2023-09-08T12:18:00;31.90;60.40
11474;DHT22;5793;52.238;13.438;2023-09-08T12:20:28;31.90;60.20
11474;DHT22;5793;52.238;13.438;2023-09-08T12:22:58;31.80;60.90
11474;DHT22;5793;52.238;13.438;2023-09-08T12:25:28;31.70;63.20
11474;DHT22;5793;52.238;13.438;2023-09-08T12:27:58;31.70;64.60
11474;DHT22;5793;52.238;13.438;2023-09-08T12:30:28;31.60;61.40
11474;DHT22;5793;52.238;13.438;2023-09-08T12:33:00;31.40;62.50
11474;DHT22;5793;52.238;13.438;2023-09-08T12:35:29;31.30;62.40
11474;DHT22;5793;52.238;13.438;2023-09-08T12:37:59;31.10;64.20
11474;DHT22;5793;52.238;13.438;2023-09-08T12:40:29;31.00;64.80
11474;DHT22;5793;52.238;13.438;2023-09-08T12:42:57;30.80;63.90
11474;DHT22;5793;52.238;13.438;2023-09-08T12:45:33;30.80;63.30
11474;DHT22;5793;52.238;13.438;2023-09-08T12:48:02;30.90;63.90
11474;DHT22;5793;52.238;13.438;2023-09-08T12:50:30;31.00;63.40
11474;DHT22;5793;52.238;13.438;2023-09-08T12:52:58;30.90;63.70
11474;DHT22;5793;52.238;13.438;2023-09-08T12:55:26;30.90;62.10
11474;DHT22;5793;52.238;13.438;2023-09-08T12:57:55;30.90;64.90
11474;DHT22;5793;52.238;13.438;2023-09-08T13:00:24;30.80;62.90
11474;DHT22;5793;52.238;13.438;2023-09-08T13:02:52;30.70;63.10
11474;DHT22;5793;52.238;13.438;2023-09-08T13:05:20;30.60;61.90
11474;DHT22;5793;52.238;13.438;2023-09-08T13:07:48;30.50;62.10
11474;DHT22;5793;52.238;13.438;2023-09-08T13:10:16;30.40;62.90
11474;DHT22;5793;52.238;13.438;2023-09-08T13:12:44;30.30;63.50
11474;DHT22;5793;52.238;13.438;2023-09-08T13:15:14;30.30;62.10
11474;DHT22;5793;52.238;13.438;2023-09-08T13:17:42;30.30;62.10
11474;DHT22;5793;52.238;13.438;2023-09-08T13:20:10;30.20;61.60
11474;DHT22;5793;52.238;13.438;2023-09-08T13:22:39;30.20;64.60
11474;DHT22;5793;52.238;13.438;2023-09-08T13:25:07;30.20;62.00
11474;DHT22;5793;52.238;13.438;2023-09-08T13:27:35;30.00;63.60
11474;DHT22;5793;52.238;13.438;2023-09-08T13:30:10;30.00;62.40
11474;DHT22;5793;52.238;13.438;2023-09-08T13:32:39;29.90;65.40
11474;DHT22;5793;52.238;13.438;2023-09-08T13:35:07;29.80;63.70
11474;DHT22;5793;52.238;13.438;2023-09-08T13:37:35;29.80;65.10
11474;DHT22;5793;52.238;13.438;2023-09-08T13:40:05;29.70;64.00
11474;DHT22;5793;52.238;13.438;2023-09-08T13:42:35;29.70;64.90
11474;DHT22;5793;52.238;13.438;2023-09-08T13:45:04;29.70;65.90
11474;DHT22;5793;52.238;13.438;2023-09-08T13:47:33;29.60;68.50
11474;DHT22;5793;52.238;13.438;2023-09-08T13:50:06;29.50;65.60
11474;DHT22;5793;52.238;13.438;2023-09-08T13:52:36;29.50;64.20
11474;DHT22;5793;52.238;13.438;2023-09-08T13:55:09;29.50;63.50
11474;DHT22;5793;52.238;13.438;2023-09-08T13:57:57;29.40;65.00
11474;DHT22;5793;52.238;13.438;2023-09-08T14:00:27;29.40;62.50
11474;DHT22;5793;52.238;13.438;2023-09-08T14:02:57;29.30;64.10
11474;DHT22;5793;52.238;13.438;2023-09-08T14:05:33;29.30;63.90
11474;DHT22;5793;52.238;13.438;2023-09-08T14:08:04;29.20;63.80
11474;DHT22;5793;52.238;13.438;2023-09-08T14:10:44;29.10;63.80
11474;DHT22;5793;52.238;13.438;2023-09-08T14:13:14;29.20;63.90
11474;DHT22;5793;52.238;13.438;2023-09-08T14:15:42;29.20;64.20
11474;DHT22;5793;52.238;13.438;2023-09-08T14:18:10;29.20;64.00
11474;DHT22;5793;52.238;13.438;2023-09-08T14:20:40;29.40;64.50
11474;DHT22;5793;52.238;13.438;2023-09-08T14:23:07;29.30;67.00
11474;DHT22;5793;52.238;13.438;2023-09-08T14:25:35;29.10;65.90
11474;DHT22;5793;52.238;13.438;2023-09-08T14:28:04;29.10;67.50
11474;DHT22;5793;52.238;13.438;2023-09-08T14:30:33;29.20;66.50
11474;DHT22;5793;52.238;13.438;2023-09-08T14:33:01;29.00;64.50
11474;DHT22;5793;52.238;13.438;2023-09-08T14:35:30;29.10;67.50
11474;DHT22;5793;52.238;13.438;2023-09-08T14:37:59;29.00;67.90
11474;DHT22;5793;52.238;13.438;2023-09-08T14:40:27;29.00;68.50
11474;DHT22;5793;52.238;13.438;2023-09-08T14:42:54;28.90;68.10
11474;DHT22;5793;52.238;13.438;2023-09-08T14:45:22;28.80;67.40
11474;DHT22;5793;52.238;13.438;2023-09-08T14:47:50;28.80;66.60
11474;DHT22;5793;52.238;13.438;2023-09-08T14:50:18;28.90;67.20
11474;DHT22;5793;52.238;13.438;2023-09-08T14:52:46;28.90;67.60
11474;DHT22;5793;52.238;13.438;2023-09-08T14:55:15;28.80;68.00
11474;DHT22;5793;52.238;13.438;2023-09-08T14:57:43;28.80;68.70
11474;DHT22;5793;52.238;13.438;2023-09-08T15:00:13;28.80;67.80
11474;DHT22;5793;52.238;13.438;2023-09-08T15:02:41;28.80;66.90
11474;DHT22;5793;52.238;13.438;2023-09-08T15:05:09;28.80;70.60
11474;DHT22;5793;52.238;13.438;2023-09-08T15:07:36;28.70;69.80
11474;DHT22;5793;52.238;13.438;2023-09-08T15:10:05;28.50;71.60
11474;DHT22;5793;52.238;13.438;2023-09-08T15:12:34;28.40;72.20
11474;DHT22;5793;52.238;13.438;2023-09-08T15:15:02;28.30;73.30
11474;DHT22;5793;52.238;13.438;2023-09-08T15:17:30;28.30;71.70
11474;DHT22;5793;52.238;13.438;2023-09-08T15:19:59;28.20;72.10
11474;DHT22;5793;52.238;13.438;2023-09-08T15:22:27;28.10;72.60
11474;DHT22;5793;52.238;13.438;2023-09-08T15:24:54;28.00;73.80
11474;DHT22;5793;52.238;13.438;2023-09-08T15:27:22;28.00;73.80
11474;DHT22;5793;52.238;13.438;2023-09-08T15:29:52;27.90;75.80
11474;DHT22;5793;52.238;13.438;2023-09-08T15:32:20;27.80;74.20
11474;DHT22;5793;52.238;13.438;2023-09-08T15:34:48;27.70;76.00
11474;DHT22;5793;52.238;13.438;2023-09-08T15:37:18;27.70;76.60
11474;DHT22;5793;52.238;13.438;2023-09-08T15:39:46;27.60;77.70
11474;DHT22;5793;52.238;13.438;2023-09-08T15:42:13;27.50;75.70